Time;durP1;ratioP1;P1;durP2;ratioP2;P2;SDS_P1;SDS_P2;PMS_P1;PMS_P2;Temp;Humidity;BMP_temperature;BMP_pressure;BME280_temperature;BME280_humidity;BME280_pressure;Samples;Min_cycle;Max_cycle;Signal;HPM_P1;HPM_P2
2022/06/08 00:02:44;;;;;;;5.15;3.75;;;;;;;13.65;94.07;100214.73;1728423;81;21027;-88
2022/06/08 00:05:42;;;;;;;3.98;3.45;;;;;;;13.65;94.14;100216.05;1729899;82;21077;-88
2022/06/08 00:08:22;;;;;;;4.53;3.50;;;;;;;13.64;94.22;100215.67;1731936;82;21074;-89
2022/06/08 00:11:09;;;;;;;4.05;3.58;;;;;;;13.64;94.19;100208.25;1731892;82;21054;-89
2022/06/08 00:13:54;;;;;;;3.98;3.30;;;;;;;13.60;94.23;100205.75;1708381;82;21154;-88
2022/06/08 00:16:30;;;;;;;3.85;3.45;;;;;;;13.63;94.49;100204.73;1716979;82;20986;-88
2022/06/08 00:19:25;;;;;;;5.65;4.75;;;;;;;13.65;94.62;100204.20;1702706;82;21061;-87
2022/06/08 00:22:11;;;;;;;5.47;4.17;;;;;;;13.70;95.41;100212.71;1693830;83;21100;-88
2022/06/08 00:24:59;;;;;;;4.47;3.70;;;;;;;13.74;95.22;100210.28;1693030;83;21002;-88
2022/06/08 00:27:41;;;;;;;6.47;4.15;;;;;;;13.78;95.47;100213.16;1728999;82;21554;-89
2022/06/08 00:30:17;;;;;;;5.37;4.00;;;;;;;13.83;95.74;100211.60;1729896;82;21099;-87
2022/06/08 00:33:00;;;;;;;5.60;4.55;;;;;;;13.90;95.86;100205.53;1729623;81;21525;-88
2022/06/08 00:35:46;;;;;;;4.30;3.90;;;;;;;13.96;96.20;100198.60;1736394;81;21027;-88
2022/06/08 00:38:28;;;;;;;5.13;4.60;;;;;;;13.97;95.66;100199.84;1725496;81;22036;-88
2022/06/08 00:41:46;;;;;;;4.97;4.40;;;;;;;13.99;95.97;100192.69;1708850;82;21099;-88
2022/06/08 00:44:34;;;;;;;5.10;4.47;;;;;;;14.03;95.74;100192.08;1667129;82;21040;-88
2022/06/08 00:47:17;;;;;;;6.28;4.45;;;;;;;14.04;95.76;100189.34;1709889;82;21034;-87
2022/06/08 00:50:12;;;;;;;6.72;4.45;;;;;;;14.04;95.59;100182.75;1734791;81;21039;-87
2022/06/08 00:53:30;;;;;;;5.62;5.12;;;;;;;14.05;95.68;100180.52;1629453;86;21142;-88
2022/06/08 00:56:04;;;;;;;5.15;4.35;;;;;;;14.07;95.88;100192.28;1617903;86;21079;-87
2022/06/08 00:58:42;;;;;;;5.12;4.50;;;;;;;14.09;95.98;100185.14;1659133;84;21804;-87
2022/06/08 01:01:28;;;;;;;6.30;5.70;;;;;;;14.12;95.95;100184.13;1593819;89;21105;-87
2022/06/08 01:04:14;;;;;;;8.35;5.85;;;;;;;14.16;96.18;100181.25;1634738;86;21083;-87
2022/06/08 01:06:55;;;;;;;7.03;6.33;;;;;;;14.20;96.26;100176.17;1643919;86;22091;-88
2022/06/08 01:10:21;;;;;;;7.83;5.65;;;;;;;14.26;96.65;100174.98;1594485;89;21074;-88
2022/06/08 01:13:01;;;;;;;6.47;5.75;;;;;;;14.26;96.26;100169.70;1595507;89;21113;-88
2022/06/08 01:15:45;;;;;;;6.97;6.28;;;;;;;14.29;96.61;100169.06;1656494;86;21102;-88
2022/06/08 01:21:36;;;;;;;6.70;5.70;;;;;;;14.37;96.78;100163.36;1680977;84;21325;-88
2022/06/08 01:24:22;;;;;;;9.15;7.25;;;;;;;14.41;96.54;100162.27;1650005;86;21179;-89
2022/06/08 01:27:51;;;;;;;8.00;7.08;;;;;;;14.40;96.48;100159.23;1619538;86;21129;-89
2022/06/08 01:30:36;;;;;;;7.67;6.95;;;;;;;14.42;96.48;100159.16;1637445;86;21064;-89
2022/06/08 01:34:16;;;;;;;8.38;6.60;;;;;;;14.43;96.81;100159.05;1671343;84;21070;-89
2022/06/08 01:37:40;;;;;;;8.33;7.20;;;;;;;14.45;96.67;100158.98;1629077;86;21107;-89
2022/06/08 01:44:39;;;;;;;8.10;6.20;;;;;;;14.48;96.90;100149.57;1608615;87;20198;-89
2022/06/08 01:47:33;;;;;;;7.15;6.45;;;;;;;14.46;96.54;100152.76;1629557;87;21126;-89
2022/06/08 01:50:40;;;;;;;11.57;5.78;;;;;;;14.46;96.66;100150.12;1663637;83;21134;-89
2022/06/08 01:54:02;;;;;;;7.10;6.40;;;;;;;14.43;96.36;100154.25;1681724;84;21079;-89
2022/06/08 01:57:26;;;;;;;7.55;6.33;;;;;;;14.42;96.47;100151.25;1669014;84;21278;-89
2022/06/08 02:00:26;;;;;;;7.10;5.60;;;;;;;14.41;96.50;100152.16;1684614;83;21058;-88
2022/06/08 02:03:24;;;;;;;8.95;6.12;;;;;;;14.40;96.42;100150.48;1676874;83;21011;-89
2022/06/08 02:10:04;;;;;;;6.33;5.53;;;;;;;14.39;96.55;100138.24;1686326;83;21055;-88
2022/06/08 02:12:38;;;;;;;8.43;6.00;;;;;;;14.39;96.51;100139.08;1684992;83;21572;-89
2022/06/08 02:15:29;;;;;;;6.40;5.75;;;;;;;14.35;96.51;100133.59;1669250;83;21575;-88
2022/06/08 02:18:09;;;;;;;7.10;6.40;;;;;;;14.37;96.73;100138.31;1707993;83;21365;-88
2022/06/08 02:20:58;;;;;;;7.70;6.90;;;;;;;14.36;96.53;100130.03;1689215;84;22100;-88
2022/06/08 02:23:59;;;;;;;7.72;6.28;;;;;;;14.36;96.48;100141.05;1688590;83;21079;-89
2022/06/08 02:27:07;;;;;;;7.58;6.78;;;;;;;14.33;96.40;100142.08;1688209;82;20944;-88
2022/06/08 02:30:12;;;;;;;7.87;7.10;;;;;;;14.33;96.39;100143.39;1703848;82;21627;-88
2022/06/08 02:36:00;;;;;;;8.38;6.33;;;;;;;14.27;96.19;100151.19;1589619;88;21169;-88
2022/06/08 02:38:44;;;;;;;7.25;6.17;;;;;;;14.22;95.93;100147.11;1598343;85;21250;-88
2022/06/08 02:41:16;;;;;;;6.50;5.72;;;;;;;14.20;96.05;100149.81;1616811;88;21198;-89
2022/06/08 02:44:25;;;;;;;6.45;5.35;;;;;;;14.16;95.56;100157.53;1540758;91;21646;-89
2022/06/08 02:47:39;;;;;;;6.72;5.58;;;;;;;14.11;95.62;100157.41;1542604;91;21112;-88
2022/06/08 02:50:30;;;;;;;6.25;5.65;;;;;;;14.07;95.61;100158.02;1558905;91;21100;-89
2022/06/08 02:53:24;;;;;;;6.37;5.58;;;;;;;14.04;95.96;100160.35;1538839;91;21130;-91
2022/06/08 02:56:04;;;;;;;5.80;4.67;;;;;;;14.01;95.77;100164.47;1568488;91;21195;-91
2022/06/08 02:58:39;;;;;;;6.40;5.30;;;;;;;13.95;95.22;100157.39;1551772;91;21608;-91
2022/06/08 03:01:12;;;;;;;7.80;5.20;;;;;;;13.90;95.51;100165.53;1552096;91;21188;-90
2022/06/08 03:03:46;;;;;;;6.17;5.40;;;;;;;13.89;95.75;100163.00;1568550;91;21193;-90
2022/06/08 03:06:24;;;;;;;7.30;5.47;;;;;;;13.86;95.43;100161.38;1526908;91;21256;-90
2022/06/08 03:08:56;;;;;;;7.30;6.35;;;;;;;13.83;95.43;100165.50;1531347;92;21769;-87
2022/06/08 03:11:27;;;;;;;9.55;6.20;;;;;;;13.81;95.63;100158.14;1544802;90;21104;-88
2022/06/08 03:14:02;;;;;;;6.85;6.12;;;;;;;13.76;95.51;100156.22;1537581;92;21110;-92
2022/06/08 03:16:35;;;;;;;7.45;6.08;;;;;;;13.78;95.93;100165.73;1539807;91;21070;-88
2022/06/08 03:19:03;;;;;;;8.78;6.72;;;;;;;13.79;96.14;100160.00;1585062;87;21627;-91
2022/06/08 03:21:32;;;;;;;7.05;6.35;;;;;;;13.80;96.31;100158.61;1613186;88;21137;-93
2022/06/08 03:24:00;;;;;;;7.12;6.15;;;;;;;13.82;96.47;100155.87;1633840;87;21698;-91
2022/06/08 03:26:39;;;;;;;8.68;6.58;;;;;;;13.82;96.24;100155.41;1634961;87;21036;-94
2022/06/08 03:29:10;;;;;;;6.83;6.15;;;;;;;13.80;96.23;100158.61;1619746;82;21096;-88
2022/06/08 03:31:57;;;;;;;7.20;6.50;;;;;;;13.81;96.20;100162.94;1680220;83;21082;-88
2022/06/08 03:34:43;;;;;;;;;;;;;;;;;;;;;
2022/06/08 03:37:36;;;;;;;17.90;7.05;;;;;;;13.81;96.44;100167.36;1719552;81;22175;-88
2022/06/08 03:40:14;;;;;;;11.38;6.33;;;;;;;13.81;96.52;100171.31;1726358;81;21237;-88
2022/06/08 03:42:53;;;;;;;12.43;6.92;;;;;;;13.76;96.24;100168.91;1724495;82;21111;-88
2022/06/08 03:45:34;;;;;;;6.85;6.20;;;;;;;13.75;96.26;100176.91;1725371;82;21017;-88
2022/06/08 03:48:20;;;;;;;12.50;7.15;;;;;;;13.76;96.56;100179.92;1719016;82;21107;-88
2022/06/08 03:50:54;;;;;;;8.10;6.50;;;;;;;13.79;97.00;100175.80;1727637;82;21094;-88
2022/06/08 03:53:34;;;;;;;9.10;7.15;;;;;;;13.80;96.84;100177.49;1727687;82;21568;-88
2022/06/08 03:56:15;;;;;;;9.58;6.25;;;;;;;13.83;97.01;100177.36;1725678;82;21049;-88
2022/06/08 03:58:55;;;;;;;9.95;6.60;;;;;;;13.85;96.98;100182.05;1727672;81;21517;-88
2022/06/08 04:01:39;;;;;;;7.05;6.17;;;;;;;13.87;96.94;100184.62;1729709;82;21147;-88
2022/06/08 04:04:08;;;;;;;8.30;5.85;;;;;;;13.86;96.80;100178.98;1725826;82;21110;-88
2022/06/08 04:06:43;;;;;;;6.53;5.92;;;;;;;13.86;96.68;100181.14;1727317;82;21008;-88
2022/06/08 04:09:24;;;;;;;7.10;6.40;;;;;;;13.86;96.81;100182.93;1727886;82;21000;-88
2022/06/08 04:12:12;;;;;;;7.58;6.40;;;;;;;13.86;96.91;100176.34;1727643;82;21035;-88
2022/06/08 04:14:39;;;;;;;6.67;6.00;;;;;;;13.89;96.93;100176.17;1725162;82;21078;-88
2022/06/08 04:17:15;;;;;;;7.12;6.42;;;;;;;13.90;97.05;100172.59;1725703;82;21039;-88
2022/06/08 04:20:10;;;;;;;8.03;6.90;;;;;;;13.92;97.01;100173.37;1723007;81;21027;-88
2022/06/08 04:22:47;;;;;;;7.83;6.85;;;;;;;13.94;97.16;100170.16;1727712;82;21044;-88
2022/06/08 04:25:30;;;;;;;7.97;7.22;;;;;;;13.98;97.18;100174.34;1725682;81;21090;-88
2022/06/08 04:28:17;;;;;;;8.40;7.33;;;;;;;13.99;97.17;100177.35;1715501;82;21470;-88
2022/06/08 04:30:48;;;;;;;8.10;7.30;;;;;;;14.05;97.47;100183.16;1726200;82;21347;-87
2022/06/08 04:33:23;;;;;;;8.23;7.42;;;;;;;14.08;97.07;100179.50;1730642;82;21158;-88
2022/06/08 04:35:55;;;;;;;7.60;6.62;;;;;;;14.07;97.06;100177.78;1755434;80;21043;-90
2022/06/08 04:38:22;;;;;;;7.67;6.92;;;;;;;14.08;97.19;100174.67;1727209;81;21548;-87
2022/06/08 04:41:00;;;;;;;7.72;6.90;;;;;;;14.10;97.19;100169.70;1714998;82;21113;-89
2022/06/08 04:43:32;;;;;;;8.40;6.47;;;;;;;14.14;97.45;100165.14;1699303;82;21084;-77
2022/06/08 04:45:59;;;;;;;7.25;6.55;;;;;;;14.17;97.22;100164.48;1705366;82;21064;-86
2022/06/08 04:48:33;;;;;;;9.23;6.92;;;;;;;14.14;97.00;100163.34;1703665;82;21018;-88
2022/06/08 04:51:39;;;;;;;8.05;6.78;;;;;;;14.15;97.07;100158.91;1695980;82;21059;-91
2022/06/08 04:54:52;;;;;;;10.78;7.53;;;;;;;14.16;97.16;100161.92;1688818;82;21234;-88
2022/06/08 04:57:27;;;;;;;8.18;6.70;;;;;;;14.16;97.44;100161.48;1653850;82;21476;-89
2022/06/08 05:00:09;;;;;;;6.97;6.22;;;;;;;14.18;97.27;100171.92;1689087;82;21023;-87
2022/06/08 05:02:44;;;;;;;7.00;6.30;;;;;;;14.21;97.60;100163.37;1696959;82;21105;-84
2022/06/08 05:05:27;;;;;;;7.25;6.22;;;;;;;14.24;97.63;100168.49;1703876;82;21051;-84
2022/06/08 05:07:55;;;;;;;7.30;6.60;;;;;;;14.26;97.42;100161.80;1723645;82;21169;-84
2022/06/08 05:10:27;;;;;;;6.92;6.25;;;;;;;14.25;97.37;100162.27;1702227;83;21048;-88
2022/06/08 05:12:59;;;;;;;7.72;6.92;;;;;;;14.28;97.45;100162.57;1723305;82;20980;-88
2022/06/08 05:15:32;;;;;;;8.88;6.33;;;;;;;14.31;97.69;100161.55;1714815;82;20980;-85
2022/06/08 05:18:01;;;;;;;7.53;6.78;;;;;;;14.35;97.88;100159.95;1711572;82;21380;-89
2022/06/08 05:20:30;;;;;;;8.03;7.22;;;;;;;14.43;98.07;100156.89;1727602;82;21138;-82
2022/06/08 05:22:59;;;;;;;7.92;7.05;;;;;;;14.48;97.93;100160.13;1707857;82;21075;-89
2022/06/08 05:25:35;;;;;;;7.45;6.75;;;;;;;14.53;98.15;100166.02;1722403;82;21032;-89
2022/06/08 05:28:06;;;;;;;8.23;7.17;;;;;;;14.58;98.30;100160.02;1719776;82;21287;-87
2022/06/08 05:30:36;;;;;;;8.10;6.70;;;;;;;14.63;98.14;100157.97;1698052;82;21075;-88
2022/06/08 05:33:04;;;;;;;6.92;6.33;;;;;;;14.67;98.14;100154.67;1723772;82;21103;-87
2022/06/08 05:35:33;;;;;;;8.70;7.30;;;;;;;14.71;98.01;100156.18;1714554;82;21076;-85
2022/06/08 05:38:02;;;;;;;10.93;6.97;;;;;;;14.74;97.80;100161.28;1703656;81;21889;-88
2022/06/08 05:40:37;;;;;;;7.75;6.95;;;;;;;14.76;97.95;100159.41;1734207;80;21042;-85
2022/06/08 05:43:01;;;;;;;8.58;7.78;;;;;;;14.78;97.79;100154.06;1743911;81;21041;-85
2022/06/08 05:45:31;;;;;;;9.88;6.53;;;;;;;14.82;97.87;100150.28;1705571;81;21142;-84
2022/06/08 05:47:59;;;;;;;9.35;7.22;;;;;;;14.85;97.84;100154.91;1718641;81;21400;-83
2022/06/08 05:50:28;;;;;;;7.78;6.95;;;;;;;14.89;98.04;100153.80;1722352;82;21069;-84
2022/06/08 05:52:55;;;;;;;7.55;6.75;;;;;;;14.94;97.99;100150.42;1719189;82;21083;-85
2022/06/08 05:55:25;;;;;;;7.00;6.40;;;;;;;14.98;97.95;100152.41;1713272;82;21113;-86
2022/06/08 05:57:53;;;;;;;8.85;6.97;;;;;;;15.02;97.93;100153.06;1732922;82;21210;-85
2022/06/08 06:00:27;;;;;;;10.25;7.22;;;;;;;15.06;98.09;100144.88;1730702;82;21023;-84
2022/06/08 06:02:55;;;;;;;8.35;6.30;;;;;;;15.12;98.22;100141.87;1720634;82;21089;-86
2022/06/08 06:05:28;;;;;;;8.73;6.90;;;;;;;15.18;98.37;100141.49;1715840;82;21051;-85
2022/06/08 06:07:56;;;;;;;7.12;6.42;;;;;;;15.27;98.34;100144.08;1729076;81;21082;-87
2022/06/08 06:10:31;;;;;;;7.10;6.20;;;;;;;15.33;98.26;100142.37;1735586;81;21946;-87
2022/06/08 06:13:00;;;;;;;6.72;6.10;;;;;;;15.39;98.23;100138.51;1718711;82;21044;-87
2022/06/08 06:15:29;;;;;;;7.00;6.30;;;;;;;15.47;98.12;100139.37;1714217;82;21489;-87
2022/06/08 06:18:00;;;;;;;6.80;6.10;;;;;;;15.55;98.26;100137.11;1716040;82;21093;-86
2022/06/08 06:20:31;;;;;;;7.25;6.53;;;;;;;15.72;98.29;100146.66;1678441;83;21541;-85
2022/06/08 06:23:15;;;;;;;8.03;6.28;;;;;;;15.72;98.29;100146.66;1727159;82;21308;-88
2022/06/08 06:25:56;;;;;;;7.28;6.62;;;;;;;15.78;98.17;100143.62;1705833;81;21557;-87
2022/06/08 06:28:25;;;;;;;6.42;5.70;;;;;;;15.87;98.16;100144.83;1702800;81;21063;-88
2022/06/08 06:30:56;;;;;;;7.65;5.60;;;;;;;15.94;97.81;100138.23;1693708;81;21042;-85
2022/06/08 06:33:32;;;;;;;7.65;5.15;;;;;;;15.99;97.42;100134.34;1748695;81;21091;-89
2022/06/08 06:36:01;;;;;;;6.30;5.70;;;;;;;16.05;96.80;100138.39;1718895;83;21069;-86
2022/06/08 06:38:28;;;;;;;6.40;5.53;;;;;;;16.13;96.90;100140.52;1735457;79;21042;-82
2022/06/08 06:40:55;;;;;;;6.75;6.05;;;;;;;16.20;97.08;100134.74;1741826;81;21015;-83
2022/06/08 06:43:23;;;;;;;7.10;5.85;;;;;;;16.30;96.85;100132.36;1745169;81;21053;-84
2022/06/08 06:45:52;;;;;;;6.12;5.22;;;;;;;16.39;96.56;100133.55;1748093;80;21291;-83
2022/06/08 06:48:27;;;;;;;9.20;6.15;;;;;;;16.44;96.41;100130.98;1749272;81;21098;-83
2022/06/08 06:50:56;;;;;;;8.60;5.53;;;;;;;16.49;96.00;100124.92;1755222;81;20983;-82
2022/06/08 06:53:23;;;;;;;9.48;5.35;;;;;;;16.56;95.90;100127.99;1711894;82;21035;-84
2022/06/08 06:55:52;;;;;;;7.08;5.05;;;;;;;16.63;95.74;100129.78;1701480;82;21013;-83
2022/06/08 06:58:22;;;;;;;6.12;5.50;;;;;;;16.70;95.74;100131.89;1703395;82;21106;-84
2022/06/08 07:00:50;;;;;;;7.72;5.28;;;;;;;16.78;95.78;100130.09;1708812;82;21117;-83
2022/06/08 07:03:19;;;;;;;6.25;5.15;;;;;;;16.84;95.71;100123.05;1702412;82;21486;-84
2022/06/08 07:05:49;;;;;;;5.62;5.10;;;;;;;16.93;95.87;100119.80;1709732;82;21031;-82
2022/06/08 07:08:16;;;;;;;6.65;5.30;;;;;;;17.01;95.54;100117.94;1723519;82;21059;-83
2022/06/08 07:11:32;;;;;;;5.60;5.00;;;;;;;17.11;95.56;100122.98;1702660;82;21053;-83
2022/06/08 07:13:14;;;;;;;8.08;5.17;;;;;;;17.21;95.50;100117.04;1699806;82;21126;-83
2022/06/08 07:15:41;;;;;;;7.42;4.85;;;;;;;17.33;95.58;100117.53;1718442;82;21004;-83
2022/06/08 07:18:09;;;;;;;7.20;5.00;;;;;;;17.47;95.65;100120.06;1720776;82;21092;-83
2022/06/08 07:20:37;;;;;;;7.83;4.40;;;;;;;17.61;95.40;100119.09;1716455;82;21031;-84
2022/06/08 07:23:05;;;;;;;7.67;4.40;;;;;;;17.74;95.27;100121.73;1709372;82;21702;-82
2022/06/08 07:25:32;;;;;;;11.43;4.85;;;;;;;17.86;95.19;100122.67;1728100;82;21232;-83
2022/06/08 07:27:59;;;;;;;6.80;4.63;;;;;;;17.96;94.87;100121.91;1758398;81;21011;-84
2022/06/08 07:30:26;;;;;;;6.60;4.45;;;;;;;18.08;94.90;100124.14;1756983;81;21554;-82
2022/06/08 07:32:53;;;;;;;5.97;4.28;;;;;;;18.18;94.49;100126.50;1748347;81;21037;-85
2022/06/08 07:35:21;;;;;;;7.67;4.50;;;;;;;18.25;93.96;100122.42;1735797;81;21557;-83
2022/06/08 07:37:48;;;;;;;8.33;4.42;;;;;;;18.34;93.90;100122.22;1748083;80;21125;-82
2022/06/08 07:40:16;;;;;;;4.70;4.28;;;;;;;18.42;93.58;100123.83;1737335;81;21018;-83
2022/06/08 07:42:43;;;;;;;7.40;4.40;;;;;;;18.49;93.34;100120.26;1754658;81;21538;-82
2022/06/08 07:45:12;;;;;;;6.15;4.17;;;;;;;18.56;93.03;100117.49;1749249;81;21025;-83
2022/06/08 07:50:28;;;;;;;5.58;4.40;;;;;;;18.75;92.82;100111.68;1714202;82;21285;-84
2022/06/08 07:52:55;;;;;;;6.08;3.65;;;;;;;18.88;92.92;100116.43;1724387;82;21068;-82
2022/06/08 07:55:22;;;;;;;8.23;4.42;;;;;;;19.04;93.12;100120.55;1709947;82;21048;-84
2022/06/08 07:57:50;;;;;;;7.45;4.22;;;;;;;19.20;92.60;100121.55;1709730;82;21023;-83
2022/06/08 08:00:20;;;;;;;5.30;3.40;;;;;;;19.32;92.40;100116.14;1709956;82;21002;-84
2022/06/08 08:02:47;;;;;;;5.90;3.70;;;;;;;19.46;91.99;100114.23;1709746;82;21142;-83
2022/06/08 08:05:17;;;;;;;4.50;3.50;;;;;;;19.58;91.79;100115.90;1709988;82;21072;-83
2022/06/08 08:07:44;;;;;;;6.05;3.45;;;;;;;19.73;91.53;100118.72;1710280;82;21499;-85
2022/06/08 08:10:17;;;;;;;5.00;3.25;;;;;;;19.86;91.20;100117.23;1717640;82;21105;-83
2022/06/08 08:12:46;;;;;;;5.25;3.80;;;;;;;19.98;90.44;100115.39;1731442;82;21066;-83
2022/06/08 08:15:16;;;;;;;4.12;3.25;;;;;;;20.10;90.02;100118.89;1739177;82;21477;-83
2022/06/08 08:17:44;;;;;;;5.28;3.35;;;;;;;20.15;89.45;100119.38;1718632;82;21562;-83
2022/06/08 08:20:16;;;;;;;6.58;3.20;;;;;;;20.21;89.25;100113.05;1718601;82;21560;-83
2022/06/08 08:22:46;;;;;;;8.78;3.50;;;;;;;20.28;88.69;100118.24;1739414;82;21094;-83
2022/06/08 08:25:15;;;;;;;;;;;;;;;20.34;88.41;100125.34;1721031;82;21562;-83
2022/06/08 08:27:43;;;;;;;6.70;3.22;;;;;;;20.38;87.68;100122.30;1721318;82;22152;-83
2022/06/08 08:30:15;;;;;;;8.43;2.92;;;;;;;20.42;87.73;100119.73;1710057;82;21683;-83
2022/06/08 08:32:42;;;;;;;6.45;3.60;;;;;;;20.49;87.58;100120.93;1726441;82;21051;-85
2022/06/08 08:35:10;;;;;;;3.55;3.08;;;;;;;20.57;87.36;100110.17;1718854;82;21035;-84
2022/06/08 08:37:37;;;;;;;4.35;2.83;;;;;;;20.65;86.89;100109.05;1739577;82;21050;-84
2022/06/08 08:40:15;;;;;;;4.55;3.12;;;;;;;20.71;86.59;100108.52;1740551;82;21719;-84
2022/06/08 08:42:42;;;;;;;5.78;2.98;;;;;;;20.79;86.50;100104.73;1713017;82;21046;-84
2022/06/08 08:45:15;;;;;;;6.92;3.05;;;;;;;20.89;85.96;100102.12;1731612;82;21058;-83
2022/06/08 08:47:54;;;;;;;5.00;2.75;;;;;;;20.98;85.94;100105.35;1740374;81;21081;-84
2022/06/08 08:50:44;;;;;;;4.25;2.45;;;;;;;21.09;85.44;100104.41;1734648;81;21103;-83
2022/06/08 08:54:00;;;;;;;4.35;2.37;;;;;;;21.19;84.99;100101.31;1731470;81;21119;-83
2022/06/08 08:56:35;;;;;;;2.42;1.57;;;;;;;21.32;84.40;100097.95;1720603;82;20984;-84
2022/06/08 08:59:12;;;;;;;4.40;1.75;;;;;;;21.47;83.19;100096.28;1738458;81;21588;-84
2022/06/08 09:01:42;;;;;;;3.98;2.27;;;;;;;21.62;81.87;100101.63;1739191;81;21049;-85
2022/06/08 09:04:26;;;;;;;2.60;1.67;;;;;;;21.72;81.61;100100.30;1735691;81;21073;-83
2022/06/08 09:06:54;;;;;;;2.77;1.65;;;;;;;21.80;80.24;100097.80;1718805;82;21129;-83
2022/06/08 09:09:26;;;;;;;3.25;1.52;;;;;;;21.95;79.88;100095.58;1722363;82;21072;-84
2022/06/08 09:11:54;;;;;;;4.12;1.50;;;;;;;22.11;79.50;100089.72;1731588;81;21491;-83
2022/06/08 09:14:26;;;;;;;2.83;1.47;;;;;;;22.26;79.23;100090.55;1734444;82;21102;-85
2022/06/08 09:17:15;;;;;;;2.55;1.57;;;;;;;22.42;78.45;100082.45;1740808;81;21532;-83
2022/06/08 09:19:50;;;;;;;3.17;1.45;;;;;;;22.58;77.90;100076.05;1759339;81;21256;-84
2022/06/08 09:22:29;;;;;;;3.40;1.35;;;;;;;22.78;77.40;100079.56;1748515;81;21628;-84
2022/06/08 09:25:03;;;;;;;4.37;1.60;;;;;;;22.98;76.88;100074.20;1753564;81;21071;-84
2022/06/08 09:27:38;;;;;;;6.55;1.57;;;;;;;23.14;76.15;100074.41;1733882;81;21087;-84
2022/06/08 09:30:14;;;;;;;3.77;1.42;;;;;;;23.26;75.19;100076.44;1753595;81;21009;-83
2022/06/08 09:32:49;;;;;;;4.42;1.25;;;;;;;23.33;74.33;100075.71;1733759;81;21140;-83
2022/06/08 09:35:26;;;;;;;2.22;1.20;;;;;;;23.31;73.15;100065.65;1753177;81;21061;-83
2022/06/08 09:38:02;;;;;;;1.27;1.00;;;;;;;23.34;72.27;100066.69;1734007;81;21044;-83
2022/06/08 09:40:40;;;;;;;3.62;1.00;;;;;;;23.37;71.85;100065.05;1721433;83;21042;-85
2022/06/08 09:43:43;;;;;;;4.50;0.93;;;;;;;23.44;71.12;100065.80;1723353;83;21097;-83
2022/06/08 09:51:25;;;;;;;4.00;0.98;;;;;;;23.43;69.66;100066.80;1719264;83;21138;-83
2022/06/08 09:51:50;;;;;;;2.33;0.98;;;;;;;23.42;69.26;100068.63;1708384;82;21568;-84
2022/06/08 09:54:50;;;;;;;2.05;1.20;;;;;;;23.48;68.97;100065.36;1691759;84;21114;-84
2022/06/08 09:57:37;;;;;;;2.65;1.15;;;;;;;23.52;68.38;100061.88;1675095;84;21096;-85
2022/06/08 10:00:50;;;;;;;4.72;0.95;;;;;;;23.51;68.02;100059.71;1622390;84;21133;-83
2022/06/08 10:03:26;;;;;;;5.60;1.20;;;;;;;23.57;67.96;100055.09;1728163;83;20995;-85
2022/06/08 10:06:13;;;;;;;2.80;1.10;;;;;;;23.67;67.56;100056.89;1727585;83;21018;-84
2022/06/08 10:08:46;;;;;;;2.17;0.95;;;;;;;23.71;66.92;100061.81;1725034;83;21470;-83
2022/06/08 10:11:43;;;;;;;1.85;1.10;;;;;;;23.74;66.63;100052.14;1710662;83;21047;-83
2022/06/08 10:14:24;;;;;;;5.05;1.20;;;;;;;23.77;66.29;100046.48;1674572;84;21147;-85
2022/06/08 10:16:58;;;;;;;3.08;1.17;;;;;;;23.74;66.09;100042.78;1683306;84;21060;-83
2022/06/08 10:19:40;;;;;;;4.05;0.93;;;;;;;23.72;65.57;100040.77;1701594;83;21055;-84
2022/06/08 10:22:09;;;;;;;3.17;0.88;;;;;;;23.73;65.43;100038.94;1711051;83;21042;-84
2022/06/08 10:24:54;;;;;;;3.27;0.80;;;;;;;23.78;64.69;100037.48;1711765;83;21500;-84
2022/06/08 10:27:27;;;;;;;1.80;1.00;;;;;;;23.82;64.02;100038.02;1706882;83;21128;-84
2022/06/08 10:30:15;;;;;;;1.85;1.10;;;;;;;23.82;63.61;100035.34;1716315;83;21036;-84
2022/06/08 10:32:53;;;;;;;1.87;0.98;;;;;;;23.86;62.94;100039.41;1723288;83;21019;-84
2022/06/08 10:35:36;;;;;;;2.15;1.05;;;;;;;23.94;63.50;100032.78;1722458;83;22202;-84
2022/06/08 10:38:06;;;;;;;3.05;1.10;;;;;;;24.14;63.56;100036.64;1713053;83;21499;-84
2022/06/08 10:40:50;;;;;;;3.25;1.10;;;;;;;24.28;63.14;100026.76;1730781;81;21120;-85
2022/06/08 10:43:26;;;;;;;3.30;1.07;;;;;;;24.48;63.20;100028.28;1733087;81;21484;-86
2022/06/08 10:46:01;;;;;;;2.85;1.02;;;;;;;24.76;63.05;100032.67;1747564;81;21364;-85
2022/06/08 10:48:43;;;;;;;2.35;0.90;;;;;;;24.94;62.25;100032.09;1733277;81;21560;-84
2022/06/08 10:51:16;;;;;;;2.30;1.10;;;;;;;25.11;62.27;100030.37;1754122;81;21282;-86
2022/06/08 10:56:41;;;;;;;1.30;0.70;;;;;;;25.12;60.54;100036.06;1751221;81;21070;-84
2022/06/08 10:59:16;;;;;;;4.08;1.00;;;;;;;25.12;60.09;100030.70;1733304;81;21524;-85
2022/06/08 11:02:16;;;;;;;2.10;1.02;;;;;;;25.27;59.90;100043.87;1744189;81;20926;-84
2022/06/08 11:05:12;;;;;;;3.62;1.10;;;;;;;25.62;59.61;100044.69;1754037;81;21536;-84
2022/06/08 11:08:12;;;;;;;3.33;0.95;;;;;;;26.03;58.97;100037.61;1714902;82;21348;-84
2022/06/08 11:10:51;;;;;;;4.17;0.82;;;;;;;26.21;57.79;100033.41;1725001;82;21042;-88
2022/06/08 11:13:33;;;;;;;1.67;0.60;;;;;;;26.29;57.09;100025.03;1729590;82;21062;-82
2022/06/08 11:16:09;;;;;;;2.90;0.80;;;;;;;26.40;56.40;100028.73;1728363;82;21099;-82
2022/06/08 11:19:02;;;;;;;2.30;0.70;;;;;;;26.56;55.70;100027.41;1729161;81;21030;-87
2022/06/08 11:21:55;;;;;;;2.40;0.70;;;;;;;26.67;54.82;100023.53;1693821;83;40046;-79
2022/06/08 11:24:32;;;;;;;1.07;0.60;;;;;;;26.69;54.37;100022.88;1695160;84;21106;-80
2022/06/08 11:27:29;;;;;;;3.22;0.70;;;;;;;26.79;53.33;100019.47;1710263;82;21063;-84
2022/06/08 11:30:00;;;;;;;2.00;0.50;;;;;;;26.87;52.51;100017.27;1709194;82;21053;-88
2022/06/08 11:32:35;;;;;;;1.27;0.50;;;;;;;27.05;52.70;100013.87;1763292;81;21015;-92
2022/06/08 11:35:37;;;;;;;2.77;0.68;;;;;;;27.19;51.59;100011.48;1717895;82;21325;-82
2022/06/08 11:38:37;;;;;;;1.37;0.50;;;;;;;27.33;52.13;100010.27;1712720;83;21095;-86
2022/06/08 11:41:27;;;;;;;2.62;0.50;;;;;;;27.66;50.96;100010.59;1723706;81;21061;-84
2022/06/08 11:43:54;;;;;;;1.57;0.78;;;;;;;27.78;50.52;100008.67;1734059;82;21009;-88
2022/06/08 11:46:33;;;;;;;2.83;0.90;;;;;;;27.98;50.40;100006.37;1687525;83;21125;-81
2022/06/08 11:49:00;;;;;;;2.75;1.27;;;;;;;27.99;49.59;100004.52;1730910;82;21100;-83
2022/06/08 11:51:41;;;;;;;2.12;0.93;;;;;;;27.99;49.32;100000.47;1709677;82;21504;-84
2022/06/08 11:54:31;;;;;;;1.80;0.68;;;;;;;28.13;49.43;100002.41;1709969;82;21074;-84
2022/06/08 11:57:17;;;;;;;3.52;0.75;;;;;;;28.34;48.71;100000.37;1710664;82;21101;-85
2022/06/08 11:59:46;;;;;;;3.47;0.80;;;;;;;28.44;48.20;99996.11;1725271;82;21258;-80
2022/06/08 12:02:28;;;;;;;2.10;0.55;;;;;;;28.55;47.47;99991.63;1712644;82;21587;-83
2022/06/08 12:04:58;;;;;;;1.17;0.53;;;;;;;28.62;47.37;99992.55;1738867;82;20999;-81
2022/06/08 12:07:45;;;;;;;0.68;0.30;;;;;;;28.69;46.01;99983.23;1734026;82;21086;-83
2022/06/08 12:10:20;;;;;;;1.75;0.50;;;;;;;28.67;45.99;99981.22;1739059;82;21598;-83
2022/06/08 12:12:48;;;;;;;1.50;0.70;;;;;;;28.90;45.55;99976.59;1716454;82;21185;-86
2022/06/08 12:15:30;;;;;;;1.40;0.50;;;;;;;28.97;45.38;99973.14;1709652;82;21112;-88
2022/06/08 12:18:27;;;;;;;2.05;0.70;;;;;;;29.02;45.05;99967.51;1718782;82;21008;-88
2022/06/08 12:21:21;;;;;;;2.42;0.70;;;;;;;28.98;44.67;99964.02;1716976;82;21044;-83
2022/06/08 12:24:00;;;;;;;1.67;0.60;;;;;;;29.14;44.80;99958.45;1723458;81;21035;-85
2022/06/08 12:26:53;;;;;;;1.65;0.82;;;;;;;29.25;44.28;99949.87;1729328;81;21015;-87
2022/06/08 12:29:39;;;;;;;2.47;0.70;;;;;;;29.21;44.66;99953.13;1725337;81;21300;-88
2022/06/08 12:32:12;;;;;;;0.90;0.80;;;;;;;29.21;44.42;99956.69;1724407;82;21054;-86
2022/06/08 12:34:44;;;;;;;1.62;0.70;;;;;;;29.27;44.41;99959.14;1735733;82;20999;-85
2022/06/08 12:37:35;;;;;;;3.00;0.70;;;;;;;29.43;44.42;99954.87;1747737;81;21042;-83
2022/06/08 12:40:23;;;;;;;2.52;0.93;;;;;;;29.68;44.41;99947.77;1746154;81;21042;-83
2022/06/08 12:43:01;;;;;;;2.98;1.00;;;;;;;29.38;43.73;99945.15;1762915;80;21132;-80
2022/06/08 12:45:40;;;;;;;1.80;1.05;;;;;;;28.71;43.45;99942.05;1741659;81;21113;-82
2022/06/08 12:48:31;;;;;;;3.17;1.30;;;;;;;28.28;43.88;99945.85;1761946;81;21050;-83